Münster Osnabrück Airport EDDG

Flugplatz Daten

Name: Münster Osnabrück Airport

Ident: EDDG

Lat: 52,13460159

Long: 7,684830189

Platzhöhe: 160 ft

IataCode: FMO

City: Münster

Metar

2021/10/25 23:50
EDDG 252350Z 21007KT 9999 BKN012 BKN020 11/10 Q1017 TEMPO SCT012 BKN020

Taf

2021/10/25 00:27
TAF EDDG 252300Z 2600/2624 20007KT 9999 BKN012
TEMPO 2604/2609 4000 BR BKN008
BECMG 2610/2613 22012KT SCT015 BKN040
BECMG 2614/2617 20007KT
Gewünschte Webcam nicht vorhanden? Dann fügen Sie eine hinzu. Sie wird dann so schnell wie möglich freigeschaltet
Url: Title: